sensor_id;sensor_type;location;lat;lon;timestamp;pressure;altitude;pressure_sealevel;temperature;humidity
11987;BME280;6053;51.382;6.768;2023-01-27T00:01:42;101927.66;;;6.26;100.00
11987;BME280;6053;51.382;6.768;2023-01-27T00:04:11;101930.22;;;6.75;100.00
11987;BME280;6053;51.382;6.768;2023-01-27T00:06:40;101932.72;;;6.93;100.00
11987;BME280;6053;51.382;6.768;2023-01-27T00:09:08;101930.88;;;6.77;100.00
11987;BME280;6053;51.382;6.768;2023-01-27T00:11:37;101931.56;;;7.10;100.00
11987;BME280;6053;51.382;6.768;2023-01-27T00:14:24;101928.66;;;6.80;100.00
11987;BME280;6053;51.382;6.768;2023-01-27T00:16:52;101930.25;;;6.03;100.00
11987;BME280;6053;51.382;6.768;2023-01-27T00:19:21;101923.56;;;5.32;100.00
11987;BME280;6053;51.382;6.768;2023-01-27T00:21:50;101933.31;;;6.16;100.00
11987;BME280;6053;51.382;6.768;2023-01-27T00:24:36;101926.31;;;6.69;100.00
11987;BME280;6053;51.382;6.768;2023-01-27T00:27:05;101931.56;;;6.79;100.00
11987;BME280;6053;51.382;6.768;2023-01-27T00:29:37;101943.94;;;6.27;100.00
11987;BME280;6053;51.382;6.768;2023-01-27T00:32:06;101936.63;;;6.59;100.00
11987;BME280;6053;51.382;6.768;2023-01-27T00:34:52;101938.16;;;5.98;100.00
11987;BME280;6053;51.382;6.768;2023-01-27T00:37:20;101939.75;;;6.48;100.00
11987;BME280;6053;51.382;6.768;2023-01-27T00:39:49;101944.25;;;6.80;100.00
11987;BME280;6053;51.382;6.768;2023-01-27T00:42:18;101941.69;;;6.31;100.00
11987;BME280;6053;51.382;6.768;2023-01-27T00:44:47;101937.06;;;6.23;100.00
11987;BME280;6053;51.382;6.768;2023-01-27T00:47:30;101944.47;;;5.82;100.00
11987;BME280;6053;51.382;6.768;2023-01-27T00:49:59;101946.84;;;6.09;100.00
11987;BME280;6053;51.382;6.768;2023-01-27T00:52:28;101948.00;;;6.40;100.00
11987;BME280;6053;51.382;6.768;2023-01-27T00:54:57;101944.94;;;6.26;100.00
11987;BME280;6053;51.382;6.768;2023-01-27T00:57:25;101937.72;;;6.42;100.00
11987;BME280;6053;51.382;6.768;2023-01-27T00:59:55;101944.63;;;5.88;100.00
11987;BME280;6053;51.382;6.768;2023-01-27T01:02:26;101940.84;;;6.22;100.00
11987;BME280;6053;51.382;6.768;2023-01-27T01:04:54;101942.72;;;5.32;100.00
11987;BME280;6053;51.382;6.768;2023-01-27T01:07:23;101940.84;;;5.49;100.00
11987;BME280;6053;51.382;6.768;2023-01-27T01:09:52;101945.31;;;5.90;100.00
11987;BME280;6053;51.382;6.768;2023-01-27T01:12:20;101947.78;;;5.02;100.00
11987;BME280;6053;51.382;6.768;2023-01-27T01:14:49;101939.13;;;5.31;100.00
11987;BME280;6053;51.382;6.768;2023-01-27T01:17:19;101953.53;;;5.66;100.00
11987;BME280;6053;51.382;6.768;2023-01-27T01:19:48;101950.78;;;4.83;100.00
11987;BME280;6053;51.382;6.768;2023-01-27T01:22:16;101956.28;;;5.58;100.00
11987;BME280;6053;51.382;6.768;2023-01-27T01:24:45;101958.13;;;5.90;100.00
11987;BME280;6053;51.382;6.768;2023-01-27T01:27:14;101963.09;;;5.37;100.00
11987;BME280;6053;51.382;6.768;2023-01-27T01:29:42;101958.50;;;5.79;100.00
11987;BME280;6053;51.382;6.768;2023-01-27T01:32:11;101962.97;;;5.63;100.00
11987;BME280;6053;51.382;6.768;2023-01-27T01:34:41;101975.09;;;5.61;100.00
11987;BME280;6053;51.382;6.768;2023-01-27T01:37:10;101967.56;;;5.55;100.00
11987;BME280;6053;51.382;6.768;2023-01-27T01:39:39;101971.53;;;5.02;100.00
11987;BME280;6053;51.382;6.768;2023-01-27T01:42:07;101972.13;;;4.79;100.00
11987;BME280;6053;51.382;6.768;2023-01-27T01:44:36;101966.50;;;5.39;100.00
11987;BME280;6053;51.382;6.768;2023-01-27T01:47:04;101977.06;;;5.26;100.00
11987;BME280;6053;51.382;6.768;2023-01-27T01:49:35;101976.47;;;4.98;100.00
11987;BME280;6053;51.382;6.768;2023-01-27T01:52:08;101973.16;;;5.20;100.00
11987;BME280;6053;51.382;6.768;2023-01-27T01:54:40;101979.28;;;5.14;100.00
11987;BME280;6053;51.382;6.768;2023-01-27T01:57:12;101980.72;;;4.84;100.00
11987;BME280;6053;51.382;6.768;2023-01-27T01:59:44;101983.78;;;5.56;100.00
11987;BME280;6053;51.382;6.768;2023-01-27T02:02:17;101983.75;;;5.24;100.00
11987;BME280;6053;51.382;6.768;2023-01-27T02:04:54;101978.13;;;4.48;100.00
11987;BME280;6053;51.382;6.768;2023-01-27T02:07:30;101991.13;;;4.81;100.00
11987;BME280;6053;51.382;6.768;2023-01-27T02:10:00;101982.72;;;4.74;100.00
11987;BME280;6053;51.382;6.768;2023-01-27T02:12:29;101997.09;;;5.27;100.00
11987;BME280;6053;51.382;6.768;2023-01-27T02:14:58;101987.72;;;5.37;100.00
11987;BME280;6053;51.382;6.768;2023-01-27T02:17:28;101987.63;;;5.13;100.00
11987;BME280;6053;51.382;6.768;2023-01-27T02:20:02;101987.34;;;4.47;100.00
11987;BME280;6053;51.382;6.768;2023-01-27T02:22:40;101991.78;;;5.25;100.00
11987;BME280;6053;51.382;6.768;2023-01-27T02:25:15;101994.88;;;5.30;100.00
11987;BME280;6053;51.382;6.768;2023-01-27T02:27:46;101991.63;;;5.35;100.00
11987;BME280;6053;51.382;6.768;2023-01-27T02:30:15;102005.47;;;5.25;100.00
11987;BME280;6053;51.382;6.768;2023-01-27T02:32:44;101996.06;;;4.43;100.00
11987;BME280;6053;51.382;6.768;2023-01-27T02:35:16;101996.19;;;5.10;100.00
11987;BME280;6053;51.382;6.768;2023-01-27T02:37:48;102005.66;;;4.89;100.00
11987;BME280;6053;51.382;6.768;2023-01-27T02:40:18;102004.09;;;5.29;100.00
11987;BME280;6053;51.382;6.768;2023-01-27T02:42:49;102011.41;;;4.70;100.00
11987;BME280;6053;51.382;6.768;2023-01-27T02:45:18;102019.75;;;4.42;100.00
11987;BME280;6053;51.382;6.768;2023-01-27T02:47:46;102016.47;;;4.65;100.00
11987;BME280;6053;51.382;6.768;2023-01-27T02:50:16;102019.13;;;4.48;100.00
11987;BME280;6053;51.382;6.768;2023-01-27T02:52:44;102024.91;;;4.71;100.00
11987;BME280;6053;51.382;6.768;2023-01-27T02:55:13;102018.53;;;4.97;100.00
11987;BME280;6053;51.382;6.768;2023-01-27T02:57:42;102021.84;;;4.75;100.00
11987;BME280;6053;51.382;6.768;2023-01-27T03:00:12;102013.84;;;5.24;100.00
11987;BME280;6053;51.382;6.768;2023-01-27T03:02:41;102008.16;;;4.40;100.00
11987;BME280;6053;51.382;6.768;2023-01-27T03:05:10;102029.03;;;4.06;100.00
11987;BME280;6053;51.382;6.768;2023-01-27T03:07:39;102023.88;;;4.72;100.00
11987;BME280;6053;51.382;6.768;2023-01-27T03:10:09;102031.25;;;5.81;100.00
11987;BME280;6053;51.382;6.768;2023-01-27T03:12:38;102026.59;;;5.90;100.00
11987;BME280;6053;51.382;6.768;2023-01-27T03:15:08;102031.38;;;5.55;100.00
11987;BME280;6053;51.382;6.768;2023-01-27T03:18:03;102029.00;;;5.77;100.00
11987;BME280;6053;51.382;6.768;2023-01-27T03:20:40;102029.22;;;5.16;100.00
11987;BME280;6053;51.382;6.768;2023-01-27T03:23:09;102026.97;;;6.20;100.00
11987;BME280;6053;51.382;6.768;2023-01-27T03:25:40;102014.13;;;6.20;100.00
11987;BME280;6053;51.382;6.768;2023-01-27T03:28:09;102015.00;;;6.12;100.00
11987;BME280;6053;51.382;6.768;2023-01-27T03:30:38;102023.38;;;6.19;100.00
11987;BME280;6053;51.382;6.768;2023-01-27T03:33:09;102025.97;;;6.21;100.00
11987;BME280;6053;51.382;6.768;2023-01-27T03:35:38;102020.97;;;5.75;100.00
11987;BME280;6053;51.382;6.768;2023-01-27T03:38:15;102020.84;;;6.01;100.00
11987;BME280;6053;51.382;6.768;2023-01-27T03:41:02;102027.53;;;5.24;100.00
11987;BME280;6053;51.382;6.768;2023-01-27T03:43:48;102028.44;;;5.49;100.00
11987;BME280;6053;51.382;6.768;2023-01-27T03:46:35;102032.56;;;5.02;100.00
11987;BME280;6053;51.382;6.768;2023-01-27T03:49:05;102035.69;;;5.74;100.00
11987;BME280;6053;51.382;6.768;2023-01-27T03:51:33;102039.97;;;5.18;100.00
11987;BME280;6053;51.382;6.768;2023-01-27T03:54:02;102040.16;;;5.16;100.00
11987;BME280;6053;51.382;6.768;2023-01-27T03:56:30;102034.31;;;5.70;100.00
11987;BME280;6053;51.382;6.768;2023-01-27T03:58:59;102040.19;;;6.41;100.00
11987;BME280;6053;51.382;6.768;2023-01-27T04:01:28;102041.56;;;6.04;100.00
11987;BME280;6053;51.382;6.768;2023-01-27T04:03:56;102042.94;;;5.33;100.00
11987;BME280;6053;51.382;6.768;2023-01-27T04:06:44;102034.63;;;5.59;100.00
11987;BME280;6053;51.382;6.768;2023-01-27T04:09:26;102036.78;;;6.14;100.00
11987;BME280;6053;51.382;6.768;2023-01-27T04:11:56;102028.53;;;6.06;100.00
11987;BME280;6053;51.382;6.768;2023-01-27T04:14:28;102038.13;;;6.34;100.00
11987;BME280;6053;51.382;6.768;2023-01-27T04:16:59;102032.94;;;6.56;100.00
11987;BME280;6053;51.382;6.768;2023-01-27T04:19:28;102030.16;;;6.72;100.00
11987;BME280;6053;51.382;6.768;2023-01-27T04:21:59;102032.50;;;6.83;100.00
11987;BME280;6053;51.382;6.768;2023-01-27T04:24:28;102034.84;;;7.03;100.00
11987;BME280;6053;51.382;6.768;2023-01-27T04:26:58;102032.59;;;7.06;100.00
11987;BME280;6053;51.382;6.768;2023-01-27T04:29:29;102022.84;;;6.40;100.00
11987;BME280;6053;51.382;6.768;2023-01-27T04:31:58;102032.31;;;6.93;100.00
11987;BME280;6053;51.382;6.768;2023-01-27T04:34:27;102039.13;;;7.05;100.00
11987;BME280;6053;51.382;6.768;2023-01-27T04:36:57;102043.75;;;6.57;100.00
11987;BME280;6053;51.382;6.768;2023-01-27T04:39:26;102039.63;;;6.45;100.00
11987;BME280;6053;51.382;6.768;2023-01-27T04:41:55;102038.63;;;6.13;100.00
11987;BME280;6053;51.382;6.768;2023-01-27T04:44:24;102048.56;;;5.23;100.00
11987;BME280;6053;51.382;6.768;2023-01-27T04:46:53;102044.63;;;6.09;100.00
11987;BME280;6053;51.382;6.768;2023-01-27T04:49:22;102051.47;;;6.37;100.00
11987;BME280;6053;51.382;6.768;2023-01-27T04:51:53;102046.41;;;6.82;100.00
11987;BME280;6053;51.382;6.768;2023-01-27T04:54:23;102047.69;;;6.30;100.00
11987;BME280;6053;51.382;6.768;2023-01-27T04:56:56;102053.03;;;6.24;100.00
11987;BME280;6053;51.382;6.768;2023-01-27T04:59:26;102048.38;;;5.91;100.00
11987;BME280;6053;51.382;6.768;2023-01-27T05:01:55;102048.91;;;5.95;100.00
11987;BME280;6053;51.382;6.768;2023-01-27T05:04:24;102048.13;;;5.52;100.00
11987;BME280;6053;51.382;6.768;2023-01-27T05:06:53;102047.88;;;6.12;100.00
11987;BME280;6053;51.382;6.768;2023-01-27T05:09:23;102052.84;;;6.42;100.00
11987;BME280;6053;51.382;6.768;2023-01-27T05:11:52;102050.97;;;6.01;100.00
11987;BME280;6053;51.382;6.768;2023-01-27T05:14:21;102053.63;;;5.77;100.00
11987;BME280;6053;51.382;6.768;2023-01-27T05:16:50;102049.41;;;5.99;100.00
11987;BME280;6053;51.382;6.768;2023-01-27T05:19:19;102048.03;;;6.35;100.00
11987;BME280;6053;51.382;6.768;2023-01-27T05:21:47;102059.63;;;5.64;100.00
11987;BME280;6053;51.382;6.768;2023-01-27T05:24:16;102052.63;;;5.86;100.00
11987;BME280;6053;51.382;6.768;2023-01-27T05:26:46;102051.16;;;6.08;100.00
11987;BME280;6053;51.382;6.768;2023-01-27T05:29:15;102055.38;;;5.78;100.00
11987;BME280;6053;51.382;6.768;2023-01-27T05:31:43;102054.75;;;6.00;100.00
11987;BME280;6053;51.382;6.768;2023-01-27T05:34:12;102056.94;;;5.97;100.00
11987;BME280;6053;51.382;6.768;2023-01-27T05:36:42;102058.66;;;6.38;100.00
11987;BME280;6053;51.382;6.768;2023-01-27T05:39:11;102069.50;;;5.49;100.00
11987;BME280;6053;51.382;6.768;2023-01-27T05:41:39;102070.25;;;5.67;100.00
11987;BME280;6053;51.382;6.768;2023-01-27T05:44:11;102072.06;;;5.08;100.00
11987;BME280;6053;51.382;6.768;2023-01-27T05:46:40;102075.13;;;6.14;100.00
11987;BME280;6053;51.382;6.768;2023-01-27T05:49:09;102072.88;;;6.58;100.00
11987;BME280;6053;51.382;6.768;2023-01-27T05:51:39;102071.69;;;6.45;100.00
11987;BME280;6053;51.382;6.768;2023-01-27T05:54:08;102072.03;;;6.09;100.00
11987;BME280;6053;51.382;6.768;2023-01-27T05:56:37;102065.69;;;6.25;100.00
11987;BME280;6053;51.382;6.768;2023-01-27T05:59:08;102076.66;;;6.33;100.00
11987;BME280;6053;51.382;6.768;2023-01-27T06:01:37;102081.06;;;5.93;100.00
11987;BME280;6053;51.382;6.768;2023-01-27T06:04:06;102067.06;;;6.29;100.00
11987;BME280;6053;51.382;6.768;2023-01-27T06:06:35;102073.38;;;6.62;100.00
11987;BME280;6053;51.382;6.768;2023-01-27T06:09:04;102061.94;;;6.18;100.00
11987;BME280;6053;51.382;6.768;2023-01-27T06:11:32;102068.44;;;6.25;100.00
11987;BME280;6053;51.382;6.768;2023-01-27T06:14:01;102070.47;;;6.39;100.00
11987;BME280;6053;51.382;6.768;2023-01-27T06:16:31;102072.31;;;6.88;100.00
11987;BME280;6053;51.382;6.768;2023-01-27T06:18:59;102073.34;;;6.78;100.00
11987;BME280;6053;51.382;6.768;2023-01-27T06:21:28;102070.88;;;7.00;100.00
11987;BME280;6053;51.382;6.768;2023-01-27T06:23:57;102074.16;;;6.95;100.00
11987;BME280;6053;51.382;6.768;2023-01-27T06:26:26;102075.47;;;7.07;100.00
11987;BME280;6053;51.382;6.768;2023-01-27T06:28:55;102080.53;;;6.79;100.00
11987;BME280;6053;51.382;6.768;2023-01-27T06:31:24;102080.19;;;6.82;100.00
11987;BME280;6053;51.382;6.768;2023-01-27T06:33:55;102081.84;;;7.00;100.00
11987;BME280;6053;51.382;6.768;2023-01-27T06:36:23;102087.38;;;6.92;100.00
11987;BME280;6053;51.382;6.768;2023-01-27T06:38:52;102088.91;;;6.94;100.00
11987;BME280;6053;51.382;6.768;2023-01-27T06:41:21;102088.59;;;6.81;100.00
11987;BME280;6053;51.382;6.768;2023-01-27T06:43:50;102098.66;;;5.82;100.00
11987;BME280;6053;51.382;6.768;2023-01-27T06:46:18;102097.63;;;5.67;100.00
11987;BME280;6053;51.382;6.768;2023-01-27T06:48:47;102104.22;;;6.15;100.00
11987;BME280;6053;51.382;6.768;2023-01-27T06:51:17;102104.22;;;5.48;100.00
11987;BME280;6053;51.382;6.768;2023-01-27T06:53:45;102107.13;;;6.05;100.00
11987;BME280;6053;51.382;6.768;2023-01-27T06:56:14;102097.19;;;6.61;100.00
11987;BME280;6053;51.382;6.768;2023-01-27T06:58:43;102112.72;;;6.94;100.00
11987;BME280;6053;51.382;6.768;2023-01-27T07:01:12;102102.25;;;7.05;100.00
11987;BME280;6053;51.382;6.768;2023-01-27T07:03:41;102106.88;;;7.05;100.00
11987;BME280;6053;51.382;6.768;2023-01-27T07:06:11;102112.19;;;7.06;100.00
11987;BME280;6053;51.382;6.768;2023-01-27T07:08:42;102110.97;;;5.70;100.00
11987;BME280;6053;51.382;6.768;2023-01-27T07:11:13;102118.09;;;6.22;100.00
11987;BME280;6053;51.382;6.768;2023-01-27T07:13:41;102122.19;;;6.50;100.00
11987;BME280;6053;51.382;6.768;2023-01-27T07:16:10;102123.91;;;6.02;100.00
11987;BME280;6053;51.382;6.768;2023-01-27T07:18:39;102120.66;;;6.56;100.00
11987;BME280;6053;51.382;6.768;2023-01-27T07:21:07;102135.06;;;6.33;100.00
11987;BME280;6053;51.382;6.768;2023-01-27T07:23:36;102131.28;;;6.67;100.00
11987;BME280;6053;51.382;6.768;2023-01-27T07:26:06;102131.28;;;6.67;100.00
11987;BME280;6053;51.382;6.768;2023-01-27T07:28:50;102143.97;;;6.84;100.00
11987;BME280;6053;51.382;6.768;2023-01-27T07:31:19;102134.56;;;6.71;100.00
11987;BME280;6053;51.382;6.768;2023-01-27T07:33:48;102138.50;;;6.68;100.00
11987;BME280;6053;51.382;6.768;2023-01-27T07:36:17;102140.19;;;6.85;100.00
11987;BME280;6053;51.382;6.768;2023-01-27T07:38:48;102149.94;;;6.23;100.00
11987;BME280;6053;51.382;6.768;2023-01-27T07:41:19;102139.31;;;6.11;100.00
11987;BME280;6053;51.382;6.768;2023-01-27T07:43:49;102144.44;;;5.98;100.00
11987;BME280;6053;51.382;6.768;2023-01-27T07:46:18;102142.44;;;6.25;100.00
11987;BME280;6053;51.382;6.768;2023-01-27T07:48:47;102145.84;;;6.10;100.00
11987;BME280;6053;51.382;6.768;2023-01-27T07:51:16;102139.34;;;6.60;100.00
11987;BME280;6053;51.382;6.768;2023-01-27T07:53:44;102145.16;;;5.58;100.00
11987;BME280;6053;51.382;6.768;2023-01-27T07:56:13;102151.47;;;5.58;100.00
11987;BME280;6053;51.382;6.768;2023-01-27T07:58:43;102156.44;;;4.94;100.00
11987;BME280;6053;51.382;6.768;2023-01-27T08:01:12;102156.50;;;5.71;100.00
11987;BME280;6053;51.382;6.768;2023-01-27T08:03:41;102153.19;;;5.25;100.00
11987;BME280;6053;51.382;6.768;2023-01-27T08:06:11;102149.19;;;5.11;100.00
11987;BME280;6053;51.382;6.768;2023-01-27T08:08:40;102153.22;;;4.99;100.00
11987;BME280;6053;51.382;6.768;2023-01-27T08:11:13;102156.31;;;4.78;100.00
11987;BME280;6053;51.382;6.768;2023-01-27T08:13:43;102163.25;;;4.90;100.00
11987;BME280;6053;51.382;6.768;2023-01-27T08:16:13;102152.88;;;5.02;100.00
11987;BME280;6053;51.382;6.768;2023-01-27T08:18:42;102160.75;;;5.31;100.00
11987;BME280;6053;51.382;6.768;2023-01-27T08:21:12;102160.75;;;4.97;100.00
11987;BME280;6053;51.382;6.768;2023-01-27T08:23:41;102156.31;;;4.78;100.00
11987;BME280;6053;51.382;6.768;2023-01-27T08:26:09;102159.75;;;5.75;100.00
11987;BME280;6053;51.382;6.768;2023-01-27T08:28:39;102155.06;;;5.59;100.00
11987;BME280;6053;51.382;6.768;2023-01-27T08:31:11;102161.91;;;5.55;100.00
11987;BME280;6053;51.382;6.768;2023-01-27T08:33:40;102159.97;;;5.13;100.00
11987;BME280;6053;51.382;6.768;2023-01-27T08:36:11;102156.00;;;5.33;100.00
11987;BME280;6053;51.382;6.768;2023-01-27T08:38:42;102160.59;;;5.33;100.00
11987;BME280;6053;51.382;6.768;2023-01-27T08:41:13;102164.09;;;4.91;100.00
11987;BME280;6053;51.382;6.768;2023-01-27T08:43:42;102165.03;;;5.76;100.00
11987;BME280;6053;51.382;6.768;2023-01-27T08:46:12;102162.13;;;6.28;100.00
11987;BME280;6053;51.382;6.768;2023-01-27T08:48:41;102164.31;;;5.66;100.00
11987;BME280;6053;51.382;6.768;2023-01-27T08:51:12;102159.41;;;5.78;100.00
11987;BME280;6053;51.382;6.768;2023-01-27T08:53:41;102154.16;;;5.16;100.00
11987;BME280;6053;51.382;6.768;2023-01-27T08:56:12;102165.91;;;5.34;100.00
11987;BME280;6053;51.382;6.768;2023-01-27T08:58:41;102168.66;;;5.08;100.00
11987;BME280;6053;51.382;6.768;2023-01-27T09:01:14;102162.47;;;5.32;100.00
11987;BME280;6053;51.382;6.768;2023-01-27T09:03:43;102160.53;;;5.51;100.00
11987;BME280;6053;51.382;6.768;2023-01-27T09:06:13;102165.53;;;5.29;100.00
11987;BME280;6053;51.382;6.768;2023-01-27T09:08:43;102171.16;;;5.28;100.00
11987;BME280;6053;51.382;6.768;2023-01-27T09:11:32;102165.50;;;5.98;100.00
11987;BME280;6053;51.382;6.768;2023-01-27T09:14:00;102170.97;;;5.98;100.00
11987;BME280;6053;51.382;6.768;2023-01-27T09:16:30;102179.97;;;5.82;100.00
11987;BME280;6053;51.382;6.768;2023-01-27T09:18:59;102182.41;;;5.51;100.00
11987;BME280;6053;51.382;6.768;2023-01-27T09:21:28;102189.25;;;5.55;100.00
11987;BME280;6053;51.382;6.768;2023-01-27T09:23:57;102193.69;;;5.48;100.00
11987;BME280;6053;51.382;6.768;2023-01-27T09:26:26;102203.91;;;5.37;100.00
11987;BME280;6053;51.382;6.768;2023-01-27T09:28:54;102196.00;;;5.34;100.00
11987;BME280;6053;51.382;6.768;2023-01-27T09:31:23;102197.63;;;5.19;100.00
11987;BME280;6053;51.382;6.768;2023-01-27T09:33:53;102195.00;;;4.83;100.00
11987;BME280;6053;51.382;6.768;2023-01-27T09:36:22;102213.78;;;5.30;100.00
11987;BME280;6053;51.382;6.768;2023-01-27T09:38:53;102208.31;;;5.30;100.00
11987;BME280;6053;51.382;6.768;2023-01-27T09:41:45;102208.84;;;5.08;100.00
11987;BME280;6053;51.382;6.768;2023-01-27T09:44:40;102215.22;;;5.16;100.00
11987;BME280;6053;51.382;6.768;2023-01-27T09:47:27;102216.97;;;5.26;100.00
11987;BME280;6053;51.382;6.768;2023-01-27T09:50:17;102223.09;;;5.46;100.00
11987;BME280;6053;51.382;6.768;2023-01-27T09:52:57;102223.25;;;5.44;100.00
11987;BME280;6053;51.382;6.768;2023-01-27T09:55:35;102224.00;;;5.28;100.00
11987;BME280;6053;51.382;6.768;2023-01-27T09:58:13;102215.56;;;4.52;100.00
11987;BME280;6053;51.382;6.768;2023-01-27T10:00:50;102222.03;;;5.38;100.00
11987;BME280;6053;51.382;6.768;2023-01-27T10:06:41;102220.66;;;5.42;100.00
11987;BME280;6053;51.382;6.768;2023-01-27T10:09:39;102222.44;;;5.52;100.00
11987;BME280;6053;51.382;6.768;2023-01-27T10:12:22;102219.34;;;5.89;100.00
11987;BME280;6053;51.382;6.768;2023-01-27T10:15:06;102223.97;;;5.80;100.00
11987;BME280;6053;51.382;6.768;2023-01-27T10:17:45;102233.06;;;5.29;100.00
11987;BME280;6053;51.382;6.768;2023-01-27T10:20:25;102216.94;;;5.43;100.00
11987;BME280;6053;51.382;6.768;2023-01-27T10:23:06;102229.88;;;4.89;100.00
11987;BME280;6053;51.382;6.768;2023-01-27T10:25:50;102232.44;;;5.09;100.00
11987;BME280;6053;51.382;6.768;2023-01-27T10:28:23;102225.56;;;5.31;100.00
11987;BME280;6053;51.382;6.768;2023-01-27T10:30:58;102225.25;;;5.08;100.00
11987;BME280;6053;51.382;6.768;2023-01-27T10:33:39;102223.81;;;5.22;100.00
11987;BME280;6053;51.382;6.768;2023-01-27T10:36:23;102230.97;;;5.23;100.00
11987;BME280;6053;51.382;6.768;2023-01-27T10:39:09;102223.59;;;5.41;100.00
11987;BME280;6053;51.382;6.768;2023-01-27T10:41:49;102225.88;;;5.54;100.00
11987;BME280;6053;51.382;6.768;2023-01-27T10:44:34;102235.00;;;5.36;100.00
11987;BME280;6053;51.382;6.768;2023-01-27T10:47:14;102239.59;;;5.96;100.00
11987;BME280;6053;51.382;6.768;2023-01-27T10:49:49;102236.28;;;5.84;100.00
11987;BME280;6053;51.382;6.768;2023-01-27T10:52:21;102234.06;;;5.88;100.00
11987;BME280;6053;51.382;6.768;2023-01-27T10:54:56;102224.19;;;5.61;100.00
11987;BME280;6053;51.382;6.768;2023-01-27T10:57:32;102232.81;;;6.17;100.00
11987;BME280;6053;51.382;6.768;2023-01-27T11:00:05;102223.81;;;5.56;100.00
11987;BME280;6053;51.382;6.768;2023-01-27T11:03:05;102234.25;;;5.52;100.00
11987;BME280;6053;51.382;6.768;2023-01-27T11:05:37;102224.56;;;5.66;100.00
11987;BME280;6053;51.382;6.768;2023-01-27T11:08:11;102224.78;;;6.15;100.00
11987;BME280;6053;51.382;6.768;2023-01-27T11:10:45;102214.63;;;5.99;100.00
11987;BME280;6053;51.382;6.768;2023-01-27T11:13:30;102206.59;;;6.06;100.00
11987;BME280;6053;51.382;6.768;2023-01-27T11:16:00;102199.72;;;5.94;100.00
11987;BME280;6053;51.382;6.768;2023-01-27T11:18:32;102207.91;;;5.25;100.00
11987;BME280;6053;51.382;6.768;2023-01-27T11:21:03;102199.91;;;5.66;100.00
11987;BME280;6053;51.382;6.768;2023-01-27T11:23:37;102205.06;;;5.35;100.00
11987;BME280;6053;51.382;6.768;2023-01-27T11:26:15;102193.44;;;5.67;100.00
11987;BME280;6053;51.382;6.768;2023-01-27T11:28:54;102198.66;;;5.52;100.00
11987;BME280;6053;51.382;6.768;2023-01-27T11:31:33;102189.00;;;5.74;100.00
11987;BME280;6053;51.382;6.768;2023-01-27T11:34:09;102179.00;;;5.99;100.00
11987;BME280;6053;51.382;6.768;2023-01-27T11:36:41;102195.59;;;5.55;100.00
11987;BME280;6053;51.382;6.768;2023-01-27T11:39:10;102187.69;;;5.44;100.00
11987;BME280;6053;51.382;6.768;2023-01-27T11:41:44;102195.22;;;5.84;100.00
11987;BME280;6053;51.382;6.768;2023-01-27T11:44:18;102189.19;;;5.38;100.00
11987;BME280;6053;51.382;6.768;2023-01-27T11:46:47;102189.91;;;5.14;100.00
11987;BME280;6053;51.382;6.768;2023-01-27T11:49:20;102173.59;;;5.31;100.00
11987;BME280;6053;51.382;6.768;2023-01-27T11:51:49;102181.25;;;5.61;100.00
11987;BME280;6053;51.382;6.768;2023-01-27T11:54:20;102178.72;;;5.76;100.00
11987;BME280;6053;51.382;6.768;2023-01-27T11:56:52;102173.88;;;5.96;100.00
11987;BME280;6053;51.382;6.768;2023-01-27T11:59:23;102181.78;;;5.31;100.00
11987;BME280;6053;51.382;6.768;2023-01-27T12:01:57;102168.56;;;5.52;100.00
11987;BME280;6053;51.382;6.768;2023-01-27T12:04:40;102164.84;;;5.27;100.00
11987;BME280;6053;51.382;6.768;2023-01-27T12:07:18;102164.84;;;6.20;100.00
11987;BME280;6053;51.382;6.768;2023-01-27T12:09:48;102162.75;;;5.98;100.00
11987;BME280;6053;51.382;6.768;2023-01-27T12:12:23;102163.84;;;6.21;100.00
11987;BME280;6053;51.382;6.768;2023-01-27T12:14:53;102163.34;;;5.83;100.00
11987;BME280;6053;51.382;6.768;2023-01-27T12:17:28;102168.41;;;5.62;100.00
11987;BME280;6053;51.382;6.768;2023-01-27T12:20:01;102166.16;;;6.00;100.00
11987;BME280;6053;51.382;6.768;2023-01-27T12:22:35;102172.59;;;5.82;100.00
11987;BME280;6053;51.382;6.768;2023-01-27T12:25:13;102176.03;;;5.84;100.00
11987;BME280;6053;51.382;6.768;2023-01-27T12:27:48;102171.72;;;5.39;100.00
11987;BME280;6053;51.382;6.768;2023-01-27T12:30:21;102177.91;;;5.41;100.00
11987;BME280;6053;51.382;6.768;2023-01-27T12:32:51;102168.31;;;5.37;100.00
11987;BME280;6053;51.382;6.768;2023-01-27T12:35:22;102164.38;;;5.74;100.00
11987;BME280;6053;51.382;6.768;2023-01-27T12:37:56;102169.34;;;5.79;100.00
11987;BME280;6053;51.382;6.768;2023-01-27T12:40:26;102163.41;;;5.91;100.00
11987;BME280;6053;51.382;6.768;2023-01-27T12:43:09;102167.44;;;5.71;100.00
11987;BME280;6053;51.382;6.768;2023-01-27T12:45:39;102166.94;;;6.51;100.00
11987;BME280;6053;51.382;6.768;2023-01-27T12:48:18;102165.72;;;6.21;100.00
11987;BME280;6053;51.382;6.768;2023-01-27T12:50:55;102161.44;;;6.18;100.00
11987;BME280;6053;51.382;6.768;2023-01-27T12:53:30;102160.28;;;5.86;100.00
11987;BME280;6053;51.382;6.768;2023-01-27T12:56:03;102170.97;;;5.98;100.00
11987;BME280;6053;51.382;6.768;2023-01-27T12:58:39;102165.72;;;6.37;100.00
11987;BME280;6053;51.382;6.768;2023-01-27T13:01:22;102171.72;;;6.49;100.00
11987;BME280;6053;51.382;6.768;2023-01-27T13:03:53;102162.09;;;6.04;100.00
11987;BME280;6053;51.382;6.768;2023-01-27T13:06:33;102164.72;;;6.71;100.00
11987;BME280;6053;51.382;6.768;2023-01-27T13:09:10;102168.97;;;6.24;100.00
11987;BME280;6053;51.382;6.768;2023-01-27T13:11:46;102160.81;;;5.90;100.00
11987;BME280;6053;51.382;6.768;2023-01-27T13:14:16;102166.34;;;6.06;100.00
11987;BME280;6053;51.382;6.768;2023-01-27T13:16:53;102165.22;;;6.42;100.00
11987;BME280;6053;51.382;6.768;2023-01-27T13:19:31;102160.75;;;6.81;100.00
11987;BME280;6053;51.382;6.768;2023-01-27T13:22:03;102164.00;;;6.77;100.00
11987;BME280;6053;51.382;6.768;2023-01-27T13:24:34;102171.91;;;6.55;100.00
11987;BME280;6053;51.382;6.768;2023-01-27T13:27:13;102172.56;;;6.25;100.00
11987;BME280;6053;51.382;6.768;2023-01-27T13:29:51;102178.94;;;6.42;100.00